createdAt,value
2022-08-16T00:03:13.579Z,5.78
2022-08-16T00:06:23.044Z,6.30
2022-08-16T00:09:31.154Z,6.10
2022-08-16T00:12:37.617Z,5.60
2022-08-16T00:15:51.455Z,5.88
2022-08-16T00:18:58.318Z,6.80
2022-08-16T00:22:13.780Z,5.80
2022-08-16T00:26:33.852Z,5.90
2022-08-16T00:28:54.846Z,5.75
2022-08-16T00:35:16.007Z,5.20
2022-08-16T00:38:40.148Z,5.40
2022-08-16T00:41:50.992Z,5.35
2022-08-16T00:44:59.616Z,5.35
2022-08-16T00:48:28.708Z,5.43
2022-08-16T00:51:35.576Z,5.55
2022-08-16T00:54:49.502Z,5.65
2022-08-16T00:58:00.807Z,6.60
2022-08-16T01:01:08.879Z,6.07
2022-08-16T01:04:29.534Z,5.88
2022-08-16T01:07:51.686Z,6.22
2022-08-16T01:11:02.406Z,5.70
2022-08-16T01:14:15.474Z,5.32
2022-08-16T01:17:56.170Z,5.60
2022-08-16T01:21:22.729Z,6.47
2022-08-16T01:24:52.337Z,5.72
2022-08-16T01:28:04.820Z,5.50
2022-08-16T01:31:12.669Z,5.35
2022-08-16T01:34:24.846Z,5.60
2022-08-16T01:37:35.860Z,5.70
2022-08-16T01:40:46.689Z,5.80
2022-08-16T01:43:54.252Z,6.03
2022-08-16T01:47:02.199Z,5.45
2022-08-16T01:50:43.240Z,5.80
2022-08-16T01:53:40.635Z,5.32
2022-08-16T01:56:49.502Z,5.57
2022-08-16T01:59:59.294Z,6.57
2022-08-16T02:03:05.026Z,5.63
2022-08-16T02:06:14.439Z,6.45
2022-08-16T02:09:41.133Z,5.80
2022-08-16T02:13:00.040Z,5.78
2022-08-16T02:16:07.497Z,6.20
2022-08-16T02:19:58.923Z,5.63
2022-08-16T02:22:53.093Z,5.82
2022-08-16T02:26:02.919Z,6.18
2022-08-16T02:29:13.012Z,5.63
2022-08-16T02:32:51.207Z,6.40
2022-08-16T02:35:54.321Z,6.35
2022-08-16T02:39:07.756Z,5.90
2022-08-16T02:42:13.213Z,6.97
2022-08-16T02:45:28.036Z,6.38
2022-08-16T02:48:34.073Z,6.32
2022-08-16T02:51:44.089Z,7.82
2022-08-16T02:54:55.367Z,6.57
2022-08-16T02:58:03.357Z,6.00
2022-08-16T03:01:24.863Z,6.88
2022-08-16T03:04:52.121Z,6.35
2022-08-16T03:07:58.253Z,7.30
2022-08-16T03:11:18.052Z,7.25
2022-08-16T03:14:27.891Z,6.57
2022-08-16T03:17:53.213Z,6.65
2022-08-16T03:20:59.935Z,7.28
2022-08-16T03:24:28.197Z,6.30
2022-08-16T03:27:34.885Z,6.82
2022-08-16T03:30:42.847Z,6.85
2022-08-16T03:33:52.274Z,6.93
2022-08-16T03:37:01.062Z,7.35
2022-08-16T03:40:10.253Z,7.38
2022-08-16T03:43:51.526Z,7.80
2022-08-16T03:46:58.307Z,7.38
2022-08-16T03:50:25.550Z,7.28
2022-08-16T03:53:37.950Z,8.02
2022-08-16T03:56:57.936Z,7.78
2022-08-16T04:00:20.499Z,7.85
2022-08-16T04:03:40.798Z,8.57
2022-08-16T04:06:50.083Z,9.05
2022-08-16T04:09:58.707Z,9.13
2022-08-16T04:13:04.907Z,8.65
2022-08-16T04:16:28.360Z,8.95
2022-08-16T04:19:35.697Z,8.55
2022-08-16T04:22:48.824Z,9.18
2022-08-16T04:25:54.659Z,9.43
2022-08-16T04:29:21.126Z,9.13
2022-08-16T04:32:28.810Z,9.80
2022-08-16T04:35:36.805Z,9.57
2022-08-16T04:38:46.913Z,10.45
2022-08-16T04:41:57.591Z,11.55
2022-08-16T04:45:04.489Z,12.68
2022-08-16T04:48:12.550Z,11.68
2022-08-16T04:51:35.843Z,12.43
2022-08-16T04:54:46.734Z,12.90
2022-08-16T04:57:54.028Z,13.15
2022-08-16T05:01:01.595Z,14.38
2022-08-16T05:04:19.252Z,13.98
2022-08-16T05:10:35.662Z,14.27
2022-08-16T05:13:46.918Z,15.85
2022-08-16T05:16:53.131Z,14.93
2022-08-16T05:20:00.942Z,16.23
2022-08-16T05:23:26.876Z,16.38
2022-08-16T05:26:51.609Z,16.30
2022-08-16T05:30:01.998Z,15.30
2022-08-16T05:33:26.114Z,17.00
2022-08-16T05:36:36.736Z,16.50
2022-08-16T05:39:45.109Z,18.10
2022-08-16T05:42:55.540Z,16.55
2022-08-16T05:46:04.727Z,16.95
2022-08-16T05:49:39.721Z,17.48
2022-08-16T05:52:47.771Z,17.67
2022-08-16T05:55:54.973Z,16.25
2022-08-16T05:59:06.105Z,16.58
2022-08-16T06:02:12.301Z,15.70
2022-08-16T06:05:20.335Z,16.48
2022-08-16T06:08:32.099Z,15.90
2022-08-16T06:11:49.921Z,15.02
2022-08-16T06:15:07.606Z,14.68
2022-08-16T06:18:15.416Z,14.73
2022-08-16T06:21:23.961Z,14.15
2022-08-16T06:24:53.522Z,13.90
2022-08-16T06:27:58.417Z,14.20
2022-08-16T06:31:13.082Z,14.00
2022-08-16T06:34:53.107Z,15.52
2022-08-16T06:37:51.379Z,13.55
2022-08-16T06:40:58.246Z,13.18
2022-08-16T06:44:07.306Z,13.60
2022-08-16T06:47:53.725Z,14.48
2022-08-16T06:50:58.537Z,15.75
2022-08-16T06:54:04.388Z,16.05
2022-08-16T06:57:16.631Z,15.00
2022-08-16T07:00:24.767Z,14.88
2022-08-16T07:03:54.662Z,14.27
2022-08-16T07:07:04.398Z,13.73
2022-08-16T07:10:13.726Z,13.63
2022-08-16T07:14:00.270Z,15.23
2022-08-16T07:16:54.075Z,13.18
2022-08-16T07:20:35.517Z,13.60
2022-08-16T07:23:37.437Z,13.63
2022-08-16T07:26:48.681Z,12.32
2022-08-16T07:29:56.769Z,14.88
2022-08-16T07:33:02.840Z,12.65
2022-08-16T07:36:14.075Z,12.35
2022-08-16T07:39:31.734Z,12.77
2022-08-16T07:42:41.263Z,11.90
2022-08-16T07:45:52.912Z,11.85
2022-08-16T07:49:03.077Z,11.18
2022-08-16T07:52:19.019Z,11.10
2022-08-16T07:55:28.527Z,10.63
2022-08-16T07:58:55.507Z,11.43
2022-08-16T08:02:06.134Z,10.48
2022-08-16T08:05:18.777Z,10.95
2022-08-16T08:08:51.811Z,10.48
2022-08-16T08:12:05.395Z,10.90
2022-08-16T08:15:15.414Z,9.90
2022-08-16T08:18:31.263Z,9.45
2022-08-16T08:21:59.138Z,9.80
2022-08-16T08:25:13.032Z,9.20
2022-08-16T08:28:25.693Z,10.60
2022-08-16T08:31:32.804Z,8.68
2022-08-16T08:37:55.639Z,9.02
2022-08-16T08:41:08.907Z,9.40
2022-08-16T08:44:29.413Z,10.18
2022-08-16T08:47:39.627Z,9.52
2022-08-16T08:50:50.209Z,9.00
2022-08-16T08:54:06.840Z,9.13
2022-08-16T08:57:15.911Z,10.35
2022-08-16T09:00:26.882Z,9.85
2022-08-16T09:03:37.957Z,9.15
2022-08-16T09:06:49.007Z,9.25
2022-08-16T09:10:06.263Z,9.20
2022-08-16T09:13:19.779Z,8.75
2022-08-16T09:17:00.837Z,9.05
2022-08-16T09:20:05.031Z,8.27
2022-08-16T09:23:12.994Z,9.40
2022-08-16T09:26:45.592Z,8.70
2022-08-16T09:30:33.625Z,8.32
2022-08-16T09:33:37.192Z,8.18
2022-08-16T09:36:48.197Z,8.40
2022-08-16T09:40:04.934Z,8.75
2022-08-16T09:44:00.346Z,8.57
2022-08-16T09:46:59.325Z,8.25
2022-08-16T09:50:22.554Z,8.23
2022-08-16T09:53:32.292Z,8.05
2022-08-16T09:56:52.370Z,7.95
2022-08-16T10:00:01.242Z,7.65
2022-08-16T10:03:13.214Z,8.57
2022-08-16T10:06:24.422Z,8.65
2022-08-16T10:09:44.867Z,9.07
2022-08-16T10:13:16.311Z,8.88
2022-08-16T10:16:22.689Z,8.38
2022-08-16T10:19:35.446Z,8.48
2022-08-16T10:22:41.835Z,8.38
2022-08-16T10:27:03.666Z,8.77
2022-08-16T10:29:19.964Z,8.52
2022-08-16T10:32:30.535Z,8.73
2022-08-16T10:35:46.753Z,8.80
2022-08-16T10:38:54.642Z,7.95
2022-08-16T10:46:41.667Z,8.20
2022-08-16T10:49:47.974Z,9.02
2022-08-16T10:52:59.064Z,7.60
2022-08-16T10:56:52.566Z,8.15
2022-08-16T10:59:45.734Z,7.43
2022-08-16T11:03:01.214Z,8.55
2022-08-16T11:06:12.334Z,8.27
2022-08-16T11:09:25.284Z,7.03
2022-08-16T11:12:36.459Z,7.70
2022-08-16T11:15:49.832Z,6.97
2022-08-16T11:19:12.048Z,7.90
2022-08-16T11:22:39.275Z,7.30
2022-08-16T11:26:23.671Z,7.47
2022-08-16T11:29:16.584Z,7.90
2022-08-16T11:32:31.168Z,7.25
2022-08-16T11:39:07.481Z,7.45
2022-08-16T11:42:28.598Z,6.47
2022-08-16T11:45:38.726Z,6.90
2022-08-16T11:48:46.939Z,6.85
2022-08-16T11:51:54.683Z,6.78
2022-08-16T11:55:00.492Z,6.47
2022-08-16T11:58:12.557Z,7.57
2022-08-16T12:01:20.467Z,7.18
2022-08-16T12:04:38.584Z,7.47
2022-08-16T12:07:44.941Z,7.20
2022-08-16T12:10:52.473Z,8.23
2022-08-16T12:14:00.834Z,7.00
2022-08-16T12:17:10.693Z,7.32
2022-08-16T12:20:19.150Z,7.00
2022-08-16T12:23:26.973Z,6.53
2022-08-16T12:26:32.558Z,6.32
2022-08-16T12:29:47.334Z,6.55
2022-08-16T12:32:56.390Z,6.80
2022-08-16T12:36:05.706Z,6.80
2022-08-16T12:39:17.880Z,7.53
2022-08-16T12:42:34.778Z,7.13
2022-08-16T12:45:47.275Z,7.03
2022-08-16T12:48:59.838Z,6.85
2022-08-16T12:52:05.642Z,7.03
2022-08-16T12:55:14.337Z,6.55
2022-08-16T12:58:50.012Z,6.85
2022-08-16T13:01:58.198Z,10.23
2022-08-16T13:05:06.871Z,6.47
2022-08-16T13:08:20.018Z,6.57
2022-08-16T13:11:35.931Z,6.47
2022-08-16T13:14:47.809Z,7.25
2022-08-16T13:18:01.366Z,6.47
2022-08-16T13:21:28.785Z,7.00
2022-08-16T13:24:34.501Z,7.72
2022-08-16T13:28:02.531Z,6.72
2022-08-16T13:31:10.596Z,6.75
2022-08-16T13:34:26.377Z,6.82
2022-08-16T13:37:31.899Z,8.57
2022-08-16T13:40:44.463Z,6.60
2022-08-16T13:43:57.736Z,6.60
2022-08-16T13:47:07.737Z,6.57
2022-08-16T13:50:16.539Z,7.03
2022-08-16T13:53:24.932Z,7.18
2022-08-16T13:56:37.008Z,7.18
2022-08-16T13:59:46.668Z,8.05
2022-08-16T14:02:58.820Z,7.75
2022-08-16T14:06:10.731Z,6.13
2022-08-16T14:09:16.475Z,7.07
2022-08-16T14:12:30.343Z,8.38
2022-08-16T14:15:36.147Z,8.65
2022-08-16T14:18:44.018Z,8.45
2022-08-16T14:22:13.342Z,8.40
2022-08-16T14:25:26.962Z,8.88
2022-08-16T14:28:32.915Z,7.22
2022-08-16T14:31:41.929Z,7.43
2022-08-16T14:34:47.411Z,7.63
2022-08-16T14:37:57.921Z,6.18
2022-08-16T14:41:03.429Z,6.93
2022-08-16T14:44:14.500Z,10.10
2022-08-16T14:47:20.872Z,6.53
2022-08-16T14:50:34.069Z,8.38
2022-08-16T14:53:45.404Z,6.57
2022-08-16T14:56:54.932Z,6.63
2022-08-16T15:00:05.991Z,7.55
2022-08-16T15:03:14.578Z,7.78
2022-08-16T15:06:20.208Z,7.38
2022-08-16T15:09:30.406Z,9.35
2022-08-16T15:12:36.485Z,7.68
2022-08-16T15:15:51.232Z,6.47
2022-08-16T15:19:06.132Z,10.30
2022-08-16T15:22:15.912Z,7.70
2022-08-16T15:25:29.142Z,8.38
2022-08-16T15:28:38.502Z,9.65
2022-08-16T15:31:48.132Z,9.52
2022-08-16T15:35:04.604Z,9.07
2022-08-16T15:38:10.593Z,7.50
2022-08-16T15:42:04.696Z,7.85
2022-08-16T15:45:12.438Z,7.95
2022-08-16T15:48:21.375Z,7.57
2022-08-16T15:51:34.366Z,7.43
2022-08-16T15:54:53.117Z,8.73
2022-08-16T15:58:34.957Z,7.57
2022-08-16T16:01:32.499Z,8.23
2022-08-16T16:04:44.018Z,6.65
2022-08-16T16:07:56.979Z,8.27
2022-08-16T16:11:17.168Z,8.55
2022-08-16T16:14:28.367Z,8.52
2022-08-16T16:17:36.660Z,7.25
2022-08-16T16:20:54.494Z,7.55
2022-08-16T16:24:02.817Z,6.90
2022-08-16T16:27:27.194Z,7.53
2022-08-16T16:30:44.604Z,7.15
2022-08-16T16:33:56.686Z,7.35
2022-08-16T16:37:03.408Z,8.05
2022-08-16T16:40:14.047Z,6.22
2022-08-16T16:43:41.077Z,6.30
2022-08-16T16:46:56.583Z,6.40
2022-08-16T16:50:03.749Z,6.32
2022-08-16T16:53:16.683Z,6.20
2022-08-16T16:56:30.123Z,6.05
2022-08-16T16:59:39.425Z,6.30
2022-08-16T17:02:49.613Z,9.43
2022-08-16T17:06:08.805Z,6.53
2022-08-16T17:09:15.887Z,7.28
2022-08-16T17:12:25.120Z,7.53
2022-08-16T17:15:52.417Z,6.63
2022-08-16T17:19:16.312Z,6.65
2022-08-16T17:22:32.605Z,6.25
2022-08-16T17:25:40.875Z,6.80
2022-08-16T17:28:57.812Z,6.95
2022-08-16T17:32:33.844Z,7.00
2022-08-16T17:35:55.665Z,7.00
2022-08-16T17:39:03.653Z,6.50
2022-08-16T17:42:21.828Z,7.03
2022-08-16T17:45:45.502Z,7.47
2022-08-16T17:48:51.455Z,6.90
2022-08-16T17:52:02.852Z,6.50
2022-08-16T17:55:10.678Z,6.50
2022-08-16T17:58:23.413Z,7.80
2022-08-16T18:01:31.266Z,6.50
2022-08-16T18:04:48.958Z,8.75
2022-08-16T18:07:59.038Z,8.75
2022-08-16T18:11:06.676Z,6.10
2022-08-16T18:14:15.972Z,6.53
2022-08-16T18:17:29.708Z,8.32
2022-08-16T18:20:50.644Z,7.65
2022-08-16T18:24:00.958Z,10.00
2022-08-16T18:27:26.608Z,7.63
2022-08-16T18:30:33.993Z,6.47
2022-08-16T18:33:43.752Z,6.80
2022-08-16T18:36:51.865Z,6.10
2022-08-16T18:40:00.413Z,6.75
2022-08-16T18:43:11.688Z,5.43
2022-08-16T18:46:17.327Z,7.15
2022-08-16T18:49:25.013Z,4.90
2022-08-16T18:52:30.846Z,6.45
2022-08-16T18:55:42.869Z,5.03
2022-08-16T18:58:50.940Z,8.90
2022-08-16T19:02:00.291Z,6.95
2022-08-16T19:05:12.808Z,5.93
2022-08-16T19:08:21.648Z,6.63
2022-08-16T19:11:30.437Z,7.18
2022-08-16T19:14:37.971Z,5.25
2022-08-16T19:17:43.475Z,5.22
2022-08-16T19:20:51.695Z,4.65
2022-08-16T19:23:57.350Z,5.43
2022-08-16T19:27:10.362Z,5.70
2022-08-16T19:30:17.114Z,6.32
2022-08-16T19:33:24.918Z,5.35
2022-08-16T19:36:35.789Z,4.88
2022-08-16T19:39:44.178Z,5.97
2022-08-16T19:42:52.691Z,5.47
2022-08-16T19:46:00.309Z,6.20
2022-08-16T19:49:06.835Z,4.93
2022-08-16T19:52:17.046Z,7.25
2022-08-16T19:55:23.209Z,6.90
2022-08-16T19:58:33.903Z,5.10
2022-08-16T20:01:42.871Z,5.60
2022-08-16T20:04:50.805Z,8.60
2022-08-16T20:07:59.835Z,8.07
2022-08-16T20:11:10.041Z,12.25
2022-08-16T20:14:25.173Z,11.98
2022-08-16T20:17:33.860Z,10.18
2022-08-16T20:20:39.891Z,8.57
2022-08-16T20:23:47.393Z,7.95
2022-08-16T20:26:52.840Z,8.45
2022-08-16T20:30:04.057Z,7.95
2022-08-16T20:33:14.526Z,7.85
2022-08-16T20:36:22.647Z,7.47
2022-08-16T20:39:28.303Z,6.18
2022-08-16T20:42:35.845Z,6.88
2022-08-16T20:45:47.846Z,7.30
2022-08-16T20:48:55.490Z,7.22
2022-08-16T20:52:09.976Z,5.32
2022-08-16T20:55:20.234Z,6.95
2022-08-16T20:58:27.922Z,7.57
2022-08-16T21:01:47.027Z,4.50
2022-08-16T21:04:55.660Z,7.90
2022-08-16T21:08:26.717Z,5.70
2022-08-16T21:11:29.058Z,5.50
2022-08-16T21:14:37.948Z,4.72
2022-08-16T21:17:46.399Z,4.45
2022-08-16T21:20:57.540Z,5.88
2022-08-16T21:24:04.394Z,5.15
2022-08-16T21:27:15.289Z,6.30
2022-08-16T21:30:27.949Z,6.85
2022-08-16T21:33:43.042Z,5.05
2022-08-16T21:37:05.279Z,5.00
2022-08-16T21:40:15.670Z,4.28
2022-08-16T21:43:23.803Z,5.22
2022-08-16T21:46:35.886Z,5.38
2022-08-16T21:49:44.484Z,5.07
2022-08-16T21:53:10.158Z,4.95
2022-08-16T21:56:17.167Z,7.30
2022-08-16T21:59:24.887Z,4.65
2022-08-16T22:02:35.791Z,3.50
2022-08-16T22:06:11.698Z,3.97
2022-08-16T22:09:18.393Z,4.65
2022-08-16T22:12:28.441Z,6.65
2022-08-16T22:15:34.108Z,127.65
2022-08-16T22:18:41.731Z,133.77
2022-08-16T22:22:02.736Z,90.63
2022-08-16T22:25:10.688Z,277.10
2022-08-16T22:28:17.355Z,193.52
2022-08-16T22:31:25.637Z,380.23
2022-08-16T22:34:31.357Z,364.88
2022-08-16T22:38:45.403Z,280.25
2022-08-16T22:41:08.436Z,228.10
2022-08-16T22:44:18.063Z,201.05
2022-08-16T22:47:23.958Z,186.45
2022-08-16T22:50:32.295Z,176.50
2022-08-16T22:53:40.623Z,156.40
2022-08-16T22:56:48.172Z,145.63
2022-08-16T22:59:53.627Z,125.80
2022-08-16T23:03:03.437Z,89.78
2022-08-16T23:06:10.914Z,90.00
2022-08-16T23:09:21.354Z,84.32
2022-08-16T23:12:30.481Z,75.50
2022-08-16T23:15:45.250Z,63.05
2022-08-16T23:18:53.414Z,59.13
2022-08-16T23:22:00.983Z,50.05
2022-08-16T23:25:11.173Z,40.53
2022-08-16T23:28:19.914Z,36.25
2022-08-16T23:31:25.409Z,33.88
2022-08-16T23:34:33.258Z,30.88
2022-08-16T23:37:38.816Z,26.45
2022-08-16T23:40:49.439Z,20.73
2022-08-16T23:43:57.778Z,20.55
2022-08-16T23:47:07.532Z,19.50
2022-08-16T23:50:13.805Z,14.90
2022-08-16T23:53:23.862Z,14.07
2022-08-16T23:56:40.546Z,14.77
2022-08-16T23:59:53.551Z,11.23
